sensor_id;sensor_type;location;lat;lon;timestamp;pressure;altitude;pressure_sealevel;temperature;humidity
24486;BME280;13449;49.374;8.584;2023-04-04T00:00:16;101611.03;;;2.82;82.23
24486;BME280;13449;49.374;8.584;2023-04-04T00:02:43;101615.91;;;2.74;86.51
24486;BME280;13449;49.374;8.584;2023-04-04T00:05:09;101611.84;;;2.70;88.01
24486;BME280;13449;49.374;8.584;2023-04-04T00:07:36;101611.16;;;2.66;90.32
24486;BME280;13449;49.374;8.584;2023-04-04T00:10:02;101604.31;;;2.92;78.65
24486;BME280;13449;49.374;8.584;2023-04-04T00:12:29;101602.25;;;2.70;85.13
24486;BME280;13449;49.374;8.584;2023-04-04T00:14:55;101599.72;;;2.42;83.94
24486;BME280;13449;49.374;8.584;2023-04-04T00:17:22;101597.91;;;2.56;83.71
24486;BME280;13449;49.374;8.584;2023-04-04T00:19:49;101600.38;;;2.72;78.19
24486;BME280;13449;49.374;8.584;2023-04-04T00:22:15;101594.72;;;2.80;81.69
24486;BME280;13449;49.374;8.584;2023-04-04T00:24:43;101594.09;;;3.16;71.95
24486;BME280;13449;49.374;8.584;2023-04-04T00:27:12;101600.50;;;2.71;80.94
24486;BME280;13449;49.374;8.584;2023-04-04T00:29:41;101583.69;;;2.62;82.32
24486;BME280;13449;49.374;8.584;2023-04-04T00:32:07;101593.50;;;2.44;86.84
24486;BME280;13449;49.374;8.584;2023-04-04T00:34:36;101584.69;;;2.74;80.93
24486;BME280;13449;49.374;8.584;2023-04-04T00:37:06;101588.25;;;2.58;86.65
24486;BME280;13449;49.374;8.584;2023-04-04T00:39:33;101584.06;;;2.56;88.42
24486;BME280;13449;49.374;8.584;2023-04-04T00:42:00;101572.69;;;2.44;89.19
24486;BME280;13449;49.374;8.584;2023-04-04T00:44:33;101587.56;;;2.28;92.87
24486;BME280;13449;49.374;8.584;2023-04-04T00:47:03;101578.66;;;2.32;91.57
24486;BME280;13449;49.374;8.584;2023-04-04T00:49:30;101582.00;;;2.34;90.23
24486;BME280;13449;49.374;8.584;2023-04-04T00:51:59;101572.34;;;2.63;87.78
24486;BME280;13449;49.374;8.584;2023-04-04T00:54:25;101575.16;;;2.60;89.01
24486;BME280;13449;49.374;8.584;2023-04-04T00:56:55;101562.78;;;2.64;91.52
24486;BME280;13449;49.374;8.584;2023-04-04T00:59:22;101573.19;;;2.22;88.75
24486;BME280;13449;49.374;8.584;2023-04-04T01:01:51;101577.69;;;2.47;91.37
24486;BME280;13449;49.374;8.584;2023-04-04T01:04:18;101579.78;;;2.28;91.16
24486;BME280;13449;49.374;8.584;2023-04-04T01:06:46;101577.97;;;2.43;91.09
24486;BME280;13449;49.374;8.584;2023-04-04T01:09:14;101572.06;;;2.41;95.18
24486;BME280;13449;49.374;8.584;2023-04-04T01:11:41;101571.81;;;2.44;90.11
24486;BME280;13449;49.374;8.584;2023-04-04T01:14:13;101573.59;;;2.43;90.09
24486;BME280;13449;49.374;8.584;2023-04-04T01:16:40;101564.38;;;2.79;80.21
24486;BME280;13449;49.374;8.584;2023-04-04T01:19:13;101576.25;;;2.70;86.48
24486;BME280;13449;49.374;8.584;2023-04-04T01:21:43;101573.34;;;2.75;85.89
24486;BME280;13449;49.374;8.584;2023-04-04T01:24:11;101575.47;;;2.27;89.41
24486;BME280;13449;49.374;8.584;2023-04-04T01:26:41;101574.09;;;2.36;91.10
24486;BME280;13449;49.374;8.584;2023-04-04T01:29:08;101570.34;;;2.40;92.88
24486;BME280;13449;49.374;8.584;2023-04-04T01:31:48;101563.78;;;2.34;96.76
24486;BME280;13449;49.374;8.584;2023-04-04T01:34:27;101563.13;;;2.30;94.43
24486;BME280;13449;49.374;8.584;2023-04-04T01:37:04;101564.13;;;2.42;91.98
24486;BME280;13449;49.374;8.584;2023-04-04T01:39:37;101558.78;;;2.17;93.05
24486;BME280;13449;49.374;8.584;2023-04-04T01:42:05;101572.69;;;2.30;91.18
24486;BME280;13449;49.374;8.584;2023-04-04T01:44:35;101565.53;;;2.33;94.95
24486;BME280;13449;49.374;8.584;2023-04-04T01:47:04;101561.03;;;2.08;93.47
24486;BME280;13449;49.374;8.584;2023-04-04T01:49:32;101558.47;;;2.36;94.86
24486;BME280;13449;49.374;8.584;2023-04-04T01:52:02;101558.47;;;2.36;96.64
24486;BME280;13449;49.374;8.584;2023-04-04T01:54:28;101564.50;;;2.36;92.87
24486;BME280;13449;49.374;8.584;2023-04-04T01:56:55;101553.78;;;2.14;96.08
24486;BME280;13449;49.374;8.584;2023-04-04T01:59:25;101558.63;;;2.05;100.00
24486;BME280;13449;49.374;8.584;2023-04-04T02:01:56;101560.56;;;1.73;96.35
24486;BME280;13449;49.374;8.584;2023-04-04T02:04:25;101556.75;;;1.93;90.28
24486;BME280;13449;49.374;8.584;2023-04-04T02:06:52;101558.38;;;2.37;89.44
24486;BME280;13449;49.374;8.584;2023-04-04T02:09:21;101560.00;;;1.97;92.75
24486;BME280;13449;49.374;8.584;2023-04-04T02:11:47;101555.47;;;2.15;89.72
24486;BME280;13449;49.374;8.584;2023-04-04T02:14:14;101544.97;;;2.16;89.01
24486;BME280;13449;49.374;8.584;2023-04-04T02:16:41;101550.44;;;1.97;94.45
24486;BME280;13449;49.374;8.584;2023-04-04T02:19:11;101550.91;;;2.18;89.20
24486;BME280;13449;49.374;8.584;2023-04-04T02:21:40;101551.81;;;2.17;94.85
24486;BME280;13449;49.374;8.584;2023-04-04T02:24:07;101546.44;;;2.20;95.89
24486;BME280;13449;49.374;8.584;2023-04-04T02:26:33;101551.66;;;2.06;98.14
24486;BME280;13449;49.374;8.584;2023-04-04T02:28:59;101542.56;;;1.99;97.99
24486;BME280;13449;49.374;8.584;2023-04-04T02:31:26;101549.78;;;2.22;97.54
24486;BME280;13449;49.374;8.584;2023-04-04T02:33:53;101546.53;;;2.19;94.12
24486;BME280;13449;49.374;8.584;2023-04-04T02:36:19;101554.06;;;2.09;97.49
24486;BME280;13449;49.374;8.584;2023-04-04T02:38:46;101545.97;;;2.28;88.40
24486;BME280;13449;49.374;8.584;2023-04-04T02:41:15;101547.59;;;2.43;87.40
24486;BME280;13449;49.374;8.584;2023-04-04T02:43:41;101548.78;;;2.52;89.46
24486;BME280;13449;49.374;8.584;2023-04-04T02:46:08;101539.44;;;2.35;92.27
24486;BME280;13449;49.374;8.584;2023-04-04T02:48:49;101551.88;;;2.44;93.12
24486;BME280;13449;49.374;8.584;2023-04-04T02:51:17;101541.91;;;2.51;91.29
24486;BME280;13449;49.374;8.584;2023-04-04T02:53:43;101552.88;;;2.15;92.62
24486;BME280;13449;49.374;8.584;2023-04-04T02:56:10;101546.06;;;2.53;89.56
24486;BME280;13449;49.374;8.584;2023-04-04T02:58:42;101543.63;;;2.38;80.72
24486;BME280;13449;49.374;8.584;2023-04-04T03:01:08;101547.69;;;2.42;89.00
24486;BME280;13449;49.374;8.584;2023-04-04T03:03:35;101544.47;;;2.24;88.83
24486;BME280;13449;49.374;8.584;2023-04-04T03:06:02;101552.25;;;2.38;87.23
24486;BME280;13449;49.374;8.584;2023-04-04T03:08:28;101547.44;;;2.32;87.45
24486;BME280;13449;49.374;8.584;2023-04-04T03:10:55;101551.88;;;2.44;86.66
24486;BME280;13449;49.374;8.584;2023-04-04T03:13:21;101555.94;;;2.48;91.06
24486;BME280;13449;49.374;8.584;2023-04-04T03:15:48;101540.78;;;2.28;90.36
24486;BME280;13449;49.374;8.584;2023-04-04T03:18:14;101539.13;;;2.13;90.37
24486;BME280;13449;49.374;8.584;2023-04-04T03:20:44;101543.09;;;1.75;97.44
24486;BME280;13449;49.374;8.584;2023-04-04T03:23:11;101546.38;;;1.79;100.00
24486;BME280;13449;49.374;8.584;2023-04-04T03:25:37;101551.00;;;1.59;99.54
24486;BME280;13449;49.374;8.584;2023-04-04T03:28:08;101548.31;;;1.90;100.00
24486;BME280;13449;49.374;8.584;2023-04-04T03:30:35;101554.50;;;1.58;98.84
24486;BME280;13449;49.374;8.584;2023-04-04T03:33:05;101546.94;;;1.84;100.00
24486;BME280;13449;49.374;8.584;2023-04-04T03:35:36;101547.28;;;1.78;96.38
24486;BME280;13449;49.374;8.584;2023-04-04T03:38:04;101543.75;;;2.22;94.82
24486;BME280;13449;49.374;8.584;2023-04-04T03:40:31;101543.69;;;1.80;96.16
24486;BME280;13449;49.374;8.584;2023-04-04T03:42:57;101544.69;;;1.78;96.68
24486;BME280;13449;49.374;8.584;2023-04-04T03:45:26;101540.63;;;1.74;98.87
24486;BME280;13449;49.374;8.584;2023-04-04T03:47:53;101545.44;;;1.80;97.92
24486;BME280;13449;49.374;8.584;2023-04-04T03:50:21;101542.66;;;1.83;96.98
24486;BME280;13449;49.374;8.584;2023-04-04T03:52:48;101542.00;;;1.65;98.66
24486;BME280;13449;49.374;8.584;2023-04-04T03:55:15;101542.75;;;1.67;98.55
24486;BME280;13449;49.374;8.584;2023-04-04T03:57:41;101548.41;;;1.59;100.00
24486;BME280;13449;49.374;8.584;2023-04-04T04:00:11;101548.03;;;1.94;99.60
24486;BME280;13449;49.374;8.584;2023-04-04T04:02:38;101544.63;;;1.79;98.82
24486;BME280;13449;49.374;8.584;2023-04-04T04:05:08;101547.13;;;1.67;100.00
24486;BME280;13449;49.374;8.584;2023-04-04T04:07:35;101547.84;;;1.69;99.80
24486;BME280;13449;49.374;8.584;2023-04-04T04:10:01;101550.81;;;1.77;100.00
24486;BME280;13449;49.374;8.584;2023-04-04T04:12:28;101542.28;;;1.75;97.03
24486;BME280;13449;49.374;8.584;2023-04-04T04:14:55;101542.56;;;1.84;98.34
24486;BME280;13449;49.374;8.584;2023-04-04T04:17:21;101545.53;;;1.93;97.63
24486;BME280;13449;49.374;8.584;2023-04-04T04:19:48;101546.09;;;1.83;97.73
24486;BME280;13449;49.374;8.584;2023-04-04T04:22:18;101542.19;;;1.91;97.85
24486;BME280;13449;49.374;8.584;2023-04-04T04:24:46;101542.09;;;1.78;97.51
24486;BME280;13449;49.374;8.584;2023-04-04T04:27:13;101538.31;;;1.83;97.31
24486;BME280;13449;49.374;8.584;2023-04-04T04:29:39;101549.72;;;1.81;97.74
24486;BME280;13449;49.374;8.584;2023-04-04T04:32:06;101541.19;;;1.93;95.72
24486;BME280;13449;49.374;8.584;2023-04-04T04:34:32;101549.81;;;1.79;100.00
24486;BME280;13449;49.374;8.584;2023-04-04T04:36:59;101548.97;;;1.79;95.08
24486;BME280;13449;49.374;8.584;2023-04-04T04:39:25;101543.50;;;1.69;93.79
24486;BME280;13449;49.374;8.584;2023-04-04T04:41:54;101541.53;;;1.87;96.97
24486;BME280;13449;49.374;8.584;2023-04-04T04:44:21;101549.97;;;1.62;96.83
24486;BME280;13449;49.374;8.584;2023-04-04T04:46:47;101550.09;;;1.89;97.16
24486;BME280;13449;49.374;8.584;2023-04-04T04:49:14;101551.00;;;1.88;99.70
24486;BME280;13449;49.374;8.584;2023-04-04T04:51:40;101547.47;;;1.75;100.00
24486;BME280;13449;49.374;8.584;2023-04-04T04:54:08;101544.69;;;1.63;97.41
24486;BME280;13449;49.374;8.584;2023-04-04T04:56:36;101541.88;;;1.38;99.62
24486;BME280;13449;49.374;8.584;2023-04-04T04:59:03;101545.97;;;1.42;99.24
24486;BME280;13449;49.374;8.584;2023-04-04T05:01:34;101549.97;;;1.62;98.12
24486;BME280;13449;49.374;8.584;2023-04-04T05:04:01;101548.22;;;1.77;95.55
24486;BME280;13449;49.374;8.584;2023-04-04T05:06:27;101545.78;;;1.45;98.61
24486;BME280;13449;49.374;8.584;2023-04-04T05:08:54;101550.72;;;1.64;99.05
24486;BME280;13449;49.374;8.584;2023-04-04T05:11:20;101556.03;;;1.77;99.96
24486;BME280;13449;49.374;8.584;2023-04-04T05:13:47;101556.97;;;1.76;100.00
24486;BME280;13449;49.374;8.584;2023-04-04T05:16:15;101559.38;;;1.93;100.00
24486;BME280;13449;49.374;8.584;2023-04-04T05:18:43;101555.84;;;1.80;100.00
24486;BME280;13449;49.374;8.584;2023-04-04T05:21:09;101558.72;;;1.90;100.00
24486;BME280;13449;49.374;8.584;2023-04-04T05:23:36;101552.94;;;1.84;99.81
24486;BME280;13449;49.374;8.584;2023-04-04T05:26:02;101552.41;;;1.94;100.00
24486;BME280;13449;49.374;8.584;2023-04-04T05:28:29;101552.84;;;2.00;100.00
24486;BME280;13449;49.374;8.584;2023-04-04T05:30:55;101556.47;;;1.98;97.68
24486;BME280;13449;49.374;8.584;2023-04-04T05:33:23;101559.81;;;2.14;99.58
24486;BME280;13449;49.374;8.584;2023-04-04T05:35:50;101552.19;;;2.25;97.56
24486;BME280;13449;49.374;8.584;2023-04-04T05:38:17;101560.75;;;1.99;100.00
24486;BME280;13449;49.374;8.584;2023-04-04T05:40:43;101561.38;;;2.17;100.00
24486;BME280;13449;49.374;8.584;2023-04-04T05:43:11;101558.44;;;2.08;100.00
24486;BME280;13449;49.374;8.584;2023-04-04T05:45:37;101559.94;;;2.40;100.00
24486;BME280;13449;49.374;8.584;2023-04-04T05:48:07;101564.16;;;2.28;100.00
24486;BME280;13449;49.374;8.584;2023-04-04T05:50:33;101558.13;;;2.27;94.74
24486;BME280;13449;49.374;8.584;2023-04-04T05:52:59;101557.59;;;2.49;100.00
24486;BME280;13449;49.374;8.584;2023-04-04T05:55:26;101567.28;;;2.47;97.83
24486;BME280;13449;49.374;8.584;2023-04-04T05:57:53;101559.22;;;2.38;90.81
24486;BME280;13449;49.374;8.584;2023-04-04T06:00:19;101567.13;;;2.63;95.35
24486;BME280;13449;49.374;8.584;2023-04-04T06:02:46;101577.38;;;2.25;94.85
24486;BME280;13449;49.374;8.584;2023-04-04T06:05:13;101565.59;;;2.61;93.38
24486;BME280;13449;49.374;8.584;2023-04-04T06:07:42;101574.81;;;2.79;96.12
24486;BME280;13449;49.374;8.584;2023-04-04T06:10:09;101571.44;;;2.64;97.41
24486;BME280;13449;49.374;8.584;2023-04-04T06:12:35;101574.09;;;2.77;92.29
24486;BME280;13449;49.374;8.584;2023-04-04T06:15:02;101573.50;;;2.99;91.82
24486;BME280;13449;49.374;8.584;2023-04-04T06:17:29;101572.47;;;3.01;90.86
24486;BME280;13449;49.374;8.584;2023-04-04T06:19:59;101580.88;;;3.19;91.32
24486;BME280;13449;49.374;8.584;2023-04-04T06:22:26;101574.63;;;3.35;88.40
24486;BME280;13449;49.374;8.584;2023-04-04T06:24:52;101583.75;;;3.55;82.00
24486;BME280;13449;49.374;8.584;2023-04-04T06:27:19;101571.97;;;3.87;79.08
24486;BME280;13449;49.374;8.584;2023-04-04T06:29:51;101581.53;;;4.12;77.90
24486;BME280;13449;49.374;8.584;2023-04-04T06:32:18;101581.16;;;4.42;71.67
24486;BME280;13449;49.374;8.584;2023-04-04T06:34:47;101578.78;;;4.39;65.05
24486;BME280;13449;49.374;8.584;2023-04-04T06:37:16;101575.25;;;4.88;68.07
24486;BME280;13449;49.374;8.584;2023-04-04T06:39:43;101575.59;;;5.19;65.14
24486;BME280;13449;49.374;8.584;2023-04-04T06:42:09;101573.72;;;4.97;59.23
24486;BME280;13449;49.374;8.584;2023-04-04T06:44:37;101577.84;;;5.59;63.53
24486;BME280;13449;49.374;8.584;2023-04-04T06:47:04;101583.09;;;5.70;59.22
24486;BME280;13449;49.374;8.584;2023-04-04T06:49:31;101580.78;;;5.43;52.41
24486;BME280;13449;49.374;8.584;2023-04-04T06:52:00;101592.75;;;6.03;52.92
24486;BME280;13449;49.374;8.584;2023-04-04T06:54:28;101580.00;;;5.88;51.24
24486;BME280;13449;49.374;8.584;2023-04-04T06:56:55;101571.31;;;5.65;52.13
24486;BME280;13449;49.374;8.584;2023-04-04T06:59:21;101575.28;;;6.26;52.22
24486;BME280;13449;49.374;8.584;2023-04-04T07:01:48;101582.91;;;6.18;53.92
24486;BME280;13449;49.374;8.584;2023-04-04T07:04:18;101583.72;;;5.85;52.13
24486;BME280;13449;49.374;8.584;2023-04-04T07:06:45;101583.13;;;6.26;48.73
24486;BME280;13449;49.374;8.584;2023-04-04T07:09:12;101573.94;;;6.54;51.66
24486;BME280;13449;49.374;8.584;2023-04-04T07:11:53;101584.44;;;6.09;49.38
24486;BME280;13449;49.374;8.584;2023-04-04T07:14:20;101574.56;;;6.13;47.29
24486;BME280;13449;49.374;8.584;2023-04-04T07:16:51;101571.59;;;6.06;47.45
24486;BME280;13449;49.374;8.584;2023-04-04T07:19:17;101569.63;;;6.65;50.20
24486;BME280;13449;49.374;8.584;2023-04-04T07:21:44;101571.50;;;7.06;47.70
24486;BME280;13449;49.374;8.584;2023-04-04T07:24:10;101574.25;;;6.61;46.65
24486;BME280;13449;49.374;8.584;2023-04-04T07:26:36;101572.00;;;7.21;46.67
24486;BME280;13449;49.374;8.584;2023-04-04T07:29:03;101570.94;;;6.91;46.17
24486;BME280;13449;49.374;8.584;2023-04-04T07:31:29;101570.34;;;6.99;46.70
24486;BME280;13449;49.374;8.584;2023-04-04T07:34:03;101564.41;;;7.18;45.57
24486;BME280;13449;49.374;8.584;2023-04-04T07:36:29;101561.47;;;7.53;46.28
24486;BME280;13449;49.374;8.584;2023-04-04T07:38:59;101559.72;;;7.00;45.08
24486;BME280;13449;49.374;8.584;2023-04-04T07:41:28;101559.47;;;7.24;45.20
24486;BME280;13449;49.374;8.584;2023-04-04T07:43:57;101563.75;;;7.05;44.15
24486;BME280;13449;49.374;8.584;2023-04-04T07:46:24;101562.25;;;7.02;44.65
24486;BME280;13449;49.374;8.584;2023-04-04T07:48:52;101556.78;;;6.94;44.77
24486;BME280;13449;49.374;8.584;2023-04-04T07:51:19;101559.56;;;6.26;45.94
24486;BME280;13449;49.374;8.584;2023-04-04T07:53:55;101570.44;;;6.76;46.37
24486;BME280;13449;49.374;8.584;2023-04-04T07:56:22;101572.72;;;7.02;47.23
24486;BME280;13449;49.374;8.584;2023-04-04T07:58:48;101574.44;;;6.81;44.49
24486;BME280;13449;49.374;8.584;2023-04-04T08:01:15;101563.06;;;7.02;44.28
24486;BME280;13449;49.374;8.584;2023-04-04T08:03:41;101559.44;;;7.36;44.57
24486;BME280;13449;49.374;8.584;2023-04-04T08:06:08;101571.34;;;6.87;44.33
24486;BME280;13449;49.374;8.584;2023-04-04T08:08:34;101564.41;;;7.18;43.34
24486;BME280;13449;49.374;8.584;2023-04-04T08:11:01;101568.44;;;7.43;44.02
24486;BME280;13449;49.374;8.584;2023-04-04T08:13:27;101570.69;;;7.06;42.51
24486;BME280;13449;49.374;8.584;2023-04-04T08:15:54;101567.69;;;7.52;43.61
24486;BME280;13449;49.374;8.584;2023-04-04T08:18:20;101564.91;;;7.54;42.19
24486;BME280;13449;49.374;8.584;2023-04-04T08:20:50;101570.44;;;7.30;42.05
24486;BME280;13449;49.374;8.584;2023-04-04T08:23:16;101561.53;;;7.42;40.46
24486;BME280;13449;49.374;8.584;2023-04-04T08:25:43;101566.66;;;7.64;40.55
24486;BME280;13449;49.374;8.584;2023-04-04T08:28:11;101574.44;;;7.76;40.49
24486;BME280;13449;49.374;8.584;2023-04-04T08:30:38;101569.97;;;7.03;41.89
24486;BME280;13449;49.374;8.584;2023-04-04T08:33:05;101574.16;;;6.95;42.52
24486;BME280;13449;49.374;8.584;2023-04-04T08:35:32;101566.06;;;7.40;41.71
24486;BME280;13449;49.374;8.584;2023-04-04T08:37:58;101573.22;;;7.59;41.98
24486;BME280;13449;49.374;8.584;2023-04-04T08:40:28;101579.03;;;7.62;40.25
24486;BME280;13449;49.374;8.584;2023-04-04T08:42:58;101566.28;;;7.48;41.36
24486;BME280;13449;49.374;8.584;2023-04-04T08:45:29;101569.16;;;7.45;41.49
24486;BME280;13449;49.374;8.584;2023-04-04T08:48:00;101558.53;;;7.67;41.20
24486;BME280;13449;49.374;8.584;2023-04-04T08:50:31;101559.56;;;7.55;40.28
24486;BME280;13449;49.374;8.584;2023-04-04T08:52:59;101567.53;;;7.54;40.20
24486;BME280;13449;49.374;8.584;2023-04-04T08:55:29;101557.00;;;7.02;41.57
24486;BME280;13449;49.374;8.584;2023-04-04T08:57:56;101556.13;;;7.01;41.42
24486;BME280;13449;49.374;8.584;2023-04-04T09:00:22;101556.13;;;6.69;41.11
24486;BME280;13449;49.374;8.584;2023-04-04T09:02:55;101566.09;;;6.87;42.10
24486;BME280;13449;49.374;8.584;2023-04-04T09:05:24;101564.16;;;6.89;41.50
24486;BME280;13449;49.374;8.584;2023-04-04T09:07:54;101556.31;;;6.89;41.12
24486;BME280;13449;49.374;8.584;2023-04-04T09:10:21;101551.75;;;7.44;41.31
24486;BME280;13449;49.374;8.584;2023-04-04T09:12:49;101557.44;;;7.49;43.42
24486;BME280;13449;49.374;8.584;2023-04-04T09:15:18;101560.66;;;7.32;43.82
24486;BME280;13449;49.374;8.584;2023-04-04T09:17:44;101546.31;;;7.36;41.84
24486;BME280;13449;49.374;8.584;2023-04-04T09:20:44;101543.34;;;7.50;43.38
24486;BME280;13449;49.374;8.584;2023-04-04T09:23:19;101549.06;;;7.55;42.88
24486;BME280;13449;49.374;8.584;2023-04-04T09:25:53;101550.53;;;7.48;42.06
24486;BME280;13449;49.374;8.584;2023-04-04T09:28:30;101553.38;;;7.66;42.91
24486;BME280;13449;49.374;8.584;2023-04-04T09:30:59;101551.16;;;7.61;43.45
24486;BME280;13449;49.374;8.584;2023-04-04T09:33:30;101540.78;;;7.81;41.39
24486;BME280;13449;49.374;8.584;2023-04-04T09:35:58;101548.34;;;7.53;41.37
24486;BME280;13449;49.374;8.584;2023-04-04T09:38:30;101544.31;;;8.01;41.33
24486;BME280;13449;49.374;8.584;2023-04-04T09:40:57;101541.47;;;8.23;41.23
24486;BME280;13449;49.374;8.584;2023-04-04T09:43:24;101547.50;;;8.54;41.33
24486;BME280;13449;49.374;8.584;2023-04-04T09:45:56;101538.50;;;8.57;40.24
24486;BME280;13449;49.374;8.584;2023-04-04T09:48:30;101536.19;;;8.73;38.45
24486;BME280;13449;49.374;8.584;2023-04-04T09:50:58;101542.41;;;8.82;38.33
24486;BME280;13449;49.374;8.584;2023-04-04T09:53:25;101545.84;;;8.63;39.35
24486;BME280;13449;49.374;8.584;2023-04-04T09:55:55;101544.91;;;8.14;36.67
24486;BME280;13449;49.374;8.584;2023-04-04T09:58:26;101540.13;;;8.29;40.19
24486;BME280;13449;49.374;8.584;2023-04-04T10:01:07;101548.63;;;8.61;39.63
24486;BME280;13449;49.374;8.584;2023-04-04T10:03:36;101537.16;;;9.01;41.53
24486;BME280;13449;49.374;8.584;2023-04-04T10:06:08;101530.25;;;8.91;38.36
24486;BME280;13449;49.374;8.584;2023-04-04T10:08:39;101523.56;;;9.16;39.11
24486;BME280;13449;49.374;8.584;2023-04-04T10:11:06;101534.66;;;8.80;39.46
24486;BME280;13449;49.374;8.584;2023-04-04T10:13:37;101530.25;;;9.10;38.45
24486;BME280;13449;49.374;8.584;2023-04-04T10:16:11;101525.38;;;9.05;38.90
24486;BME280;13449;49.374;8.584;2023-04-04T10:18:38;101536.06;;;8.94;38.15
24486;BME280;13449;49.374;8.584;2023-04-04T10:21:06;101535.72;;;9.46;38.91
24486;BME280;13449;49.374;8.584;2023-04-04T10:23:36;101532.47;;;9.52;38.55
24486;BME280;13449;49.374;8.584;2023-04-04T10:26:04;101532.00;;;9.09;37.85
24486;BME280;13449;49.374;8.584;2023-04-04T10:28:33;101522.03;;;9.23;37.20
24486;BME280;13449;49.374;8.584;2023-04-04T10:31:16;101534.81;;;8.79;36.53
24486;BME280;13449;49.374;8.584;2023-04-04T10:36:28;101532.25;;;9.35;38.45
24486;BME280;13449;49.374;8.584;2023-04-04T10:39:13;101521.63;;;9.27;38.40
24486;BME280;13449;49.374;8.584;2023-04-04T10:41:41;101529.75;;;9.81;37.98
24486;BME280;13449;49.374;8.584;2023-04-04T10:44:22;101530.09;;;9.11;37.41
24486;BME280;13449;49.374;8.584;2023-04-04T10:46:52;101531.09;;;9.57;37.80
24486;BME280;13449;49.374;8.584;2023-04-04T10:49:20;101535.41;;;9.39;36.95
24486;BME280;13449;49.374;8.584;2023-04-04T10:51:47;101532.13;;;9.37;36.58
24486;BME280;13449;49.374;8.584;2023-04-04T10:54:24;101521.94;;;9.62;37.27
24486;BME280;13449;49.374;8.584;2023-04-04T10:56:50;101521.50;;;8.90;37.18
24486;BME280;13449;49.374;8.584;2023-04-04T10:59:17;101513.47;;;9.21;35.49
24486;BME280;13449;49.374;8.584;2023-04-04T11:01:58;101507.78;;;9.16;36.33
24486;BME280;13449;49.374;8.584;2023-04-04T11:04:40;101506.44;;;9.58;35.87
24486;BME280;13449;49.374;8.584;2023-04-04T11:07:15;101500.16;;;9.79;36.27
24486;BME280;13449;49.374;8.584;2023-04-04T11:09:55;101500.19;;;9.03;34.64
24486;BME280;13449;49.374;8.584;2023-04-04T11:12:25;101489.13;;;9.09;35.65
24486;BME280;13449;49.374;8.584;2023-04-04T11:20:15;101485.34;;;9.68;35.20
24486;BME280;13449;49.374;8.584;2023-04-04T11:22:43;101484.09;;;9.72;37.75
24486;BME280;13449;49.374;8.584;2023-04-04T11:25:34;101480.72;;;9.52;36.03
24486;BME280;13449;49.374;8.584;2023-04-04T11:36:54;101471.88;;;10.09;35.35
24486;BME280;13449;49.374;8.584;2023-04-04T11:39:28;101464.88;;;10.17;35.71
24486;BME280;13449;49.374;8.584;2023-04-04T11:41:56;101469.16;;;10.18;37.27
24486;BME280;13449;49.374;8.584;2023-04-04T11:44:26;101457.66;;;10.19;35.28
24486;BME280;13449;49.374;8.584;2023-04-04T11:49:41;101463.81;;;10.10;33.32
24486;BME280;13449;49.374;8.584;2023-04-04T11:52:11;101458.13;;;10.33;34.23
24486;BME280;13449;49.374;8.584;2023-04-04T11:54:39;101443.13;;;10.69;34.56
24486;BME280;13449;49.374;8.584;2023-04-04T11:57:17;101440.28;;;10.80;35.44
24486;BME280;13449;49.374;8.584;2023-04-04T11:59:48;101440.97;;;10.64;34.86
24486;BME280;13449;49.374;8.584;2023-04-04T12:02:22;101450.31;;;9.68;35.15
24486;BME280;13449;49.374;8.584;2023-04-04T12:04:52;101437.94;;;10.05;35.36
24486;BME280;13449;49.374;8.584;2023-04-04T12:07:19;101440.22;;;9.91;35.22
24486;BME280;13449;49.374;8.584;2023-04-04T12:09:49;101439.09;;;9.93;34.96
24486;BME280;13449;49.374;8.584;2023-04-04T12:12:18;101444.16;;;10.32;35.45
24486;BME280;13449;49.374;8.584;2023-04-04T12:14:45;101433.81;;;10.21;36.30
24486;BME280;13449;49.374;8.584;2023-04-04T12:17:12;101434.88;;;10.64;33.91
24486;BME280;13449;49.374;8.584;2023-04-04T12:19:42;101431.13;;;10.48;34.35
24486;BME280;13449;49.374;8.584;2023-04-04T12:22:11;101426.19;;;10.71;34.61
24486;BME280;13449;49.374;8.584;2023-04-04T12:24:37;101428.63;;;10.65;35.37
24486;BME280;13449;49.374;8.584;2023-04-04T12:27:05;101430.06;;;10.59;34.24
24486;BME280;13449;49.374;8.584;2023-04-04T12:29:34;101421.03;;;10.62;35.04
24486;BME280;13449;49.374;8.584;2023-04-04T12:32:03;101438.44;;;10.37;34.77
24486;BME280;13449;49.374;8.584;2023-04-04T12:34:34;101418.25;;;10.63;34.27
24486;BME280;13449;49.374;8.584;2023-04-04T12:37:01;101419.88;;;10.82;35.03
24486;BME280;13449;49.374;8.584;2023-04-04T12:39:28;101413.41;;;11.03;34.56
24486;BME280;13449;49.374;8.584;2023-04-04T12:42:00;101409.69;;;10.87;34.18
24486;BME280;13449;49.374;8.584;2023-04-04T12:44:31;101407.59;;;11.25;34.72
24486;BME280;13449;49.374;8.584;2023-04-04T12:47:00;101401.31;;;11.18;33.78
24486;BME280;13449;49.374;8.584;2023-04-04T12:49:37;101398.88;;;11.25;34.29
24486;BME280;13449;49.374;8.584;2023-04-04T12:52:06;101413.94;;;11.06;33.87
24486;BME280;13449;49.374;8.584;2023-04-04T12:54:38;101392.16;;;10.78;32.08
24486;BME280;13449;49.374;8.584;2023-04-04T12:57:06;101393.91;;;10.69;33.60
24486;BME280;13449;49.374;8.584;2023-04-04T12:59:34;101387.25;;;10.83;34.28
24486;BME280;13449;49.374;8.584;2023-04-04T13:02:04;101384.84;;;10.98;33.54
24486;BME280;13449;49.374;8.584;2023-04-04T13:04:32;101380.75;;;10.95;34.38
24486;BME280;13449;49.374;8.584;2023-04-04T13:06:59;101381.66;;;11.12;33.60
24486;BME280;13449;49.374;8.584;2023-04-04T13:09:27;101376.22;;;10.62;34.72
24486;BME280;13449;49.374;8.584;2023-04-04T13:12:02;101380.22;;;10.92;35.79
24486;BME280;13449;49.374;8.584;2023-04-04T13:15:03;101383.41;;;10.77;35.12
24486;BME280;13449;49.374;8.584;2023-04-04T13:17:44;101386.75;;;10.80;34.52
24486;BME280;13449;49.374;8.584;2023-04-04T13:20:13;101382.38;;;10.96;35.40
24486;BME280;13449;49.374;8.584;2023-04-04T13:22:42;101374.94;;;10.92;34.15
24486;BME280;13449;49.374;8.584;2023-04-04T13:25:10;101369.78;;;10.82;33.86